Al Karkh, Iraq
Current Conditions -  °F | °C
As of 6:00 PM on Thursday 23 Oct 2014 (Local Time) from ORBI Reporting Station
Clear Clear  
Wind Chill: 77°   Ceiling: Unl
Heat Index: 78°   Visibility: 6mi
Dew Point: 48°   Wind: 5mph
Humidity: 36%   Direction: 140°SE
Pressure: 29.97"   Gusts: NA
Location:  33.33°N, 44.33°E
Report Text: ORBI 231500Z 14004KT CAVOK 25/09 Q1015
Loading
Personal Weather Stations






























Interactive Weather Map
Tropical Storm Tracking
New forecast layout! Learn more

10-Day Weather Forecast

Advertisements
Track Severe Weather on mobile